createdAt,value
2023-02-19T00:00:17.619Z,96.36
2023-02-19T00:01:20.913Z,96.33
2023-02-19T00:02:24.006Z,96.31
2023-02-19T00:03:59.100Z,96.35
2023-02-19T00:05:02.316Z,96.26
2023-02-19T00:06:05.665Z,96.28
2023-02-19T00:07:40.685Z,96.22
2023-02-19T00:08:43.877Z,96.21
2023-02-19T00:09:46.924Z,96.20
2023-02-19T00:11:21.732Z,96.16
2023-02-19T00:12:24.995Z,96.16
2023-02-19T00:13:28.246Z,96.14
2023-02-19T00:15:03.465Z,96.07
2023-02-19T00:16:06.625Z,96.08
2023-02-19T00:17:09.642Z,96.07
2023-02-19T00:18:44.295Z,96.06
2023-02-19T00:19:47.370Z,96.08
2023-02-19T00:20:50.588Z,96.06
2023-02-19T00:22:25.771Z,96.06
2023-02-19T00:23:28.840Z,96.02
2023-02-19T00:24:31.927Z,96.01
2023-02-19T00:26:24.079Z,95.96
2023-02-19T00:27:27.548Z,95.94
2023-02-19T00:28:30.823Z,95.92
2023-02-19T00:30:06.072Z,95.85
2023-02-19T00:31:09.909Z,95.86
2023-02-19T00:32:14.346Z,95.83
2023-02-19T00:33:49.360Z,95.70
2023-02-19T00:34:52.305Z,95.71
2023-02-19T00:35:55.301Z,95.76
2023-02-19T00:37:30.129Z,95.66
2023-02-19T00:38:33.108Z,95.61
2023-02-19T00:39:36.285Z,95.60
2023-02-19T00:41:11.391Z,95.61
2023-02-19T00:42:14.461Z,95.54
2023-02-19T00:43:17.484Z,95.53
2023-02-19T00:44:52.528Z,95.52
2023-02-19T00:45:55.333Z,95.56
2023-02-19T00:46:58.709Z,95.57
2023-02-19T00:48:33.727Z,95.52
2023-02-19T00:49:36.759Z,95.47
2023-02-19T00:50:39.596Z,95.58
2023-02-19T00:52:14.438Z,95.56
2023-02-19T00:53:17.600Z,95.58
2023-02-19T00:54:20.612Z,95.62
2023-02-19T00:55:55.482Z,95.62
2023-02-19T00:56:58.439Z,95.65
2023-02-19T00:58:01.565Z,95.69
2023-02-19T00:59:36.674Z,95.68
2023-02-19T01:00:18.367Z,95.68
2023-02-19T01:01:21.816Z,95.71
2023-02-19T01:02:25.638Z,95.62
2023-02-19T01:04:00.658Z,95.65
2023-02-19T01:05:04.685Z,95.61
2023-02-19T01:06:07.865Z,95.61
2023-02-19T01:07:42.948Z,95.60
2023-02-19T01:08:46.106Z,95.62
2023-02-19T01:09:48.927Z,95.53
2023-02-19T01:11:23.695Z,95.45
2023-02-19T01:12:26.670Z,95.50
2023-02-19T01:13:29.706Z,95.50
2023-02-19T01:15:04.801Z,95.54
2023-02-19T01:16:08.013Z,95.49
2023-02-19T01:17:11.555Z,95.44
2023-02-19T01:18:46.595Z,95.43
2023-02-19T01:19:49.725Z,95.44
2023-02-19T01:20:52.762Z,95.42
2023-02-19T01:22:28.364Z,95.37
2023-02-19T01:23:31.454Z,95.30
2023-02-19T01:24:34.261Z,95.24
2023-02-19T01:26:09.336Z,95.28
2023-02-19T01:27:12.435Z,95.26
2023-02-19T01:28:15.465Z,95.31
2023-02-19T01:29:50.309Z,95.32
2023-02-19T01:30:53.426Z,95.34
2023-02-19T01:31:57.543Z,95.31
2023-02-19T01:33:33.308Z,95.27
2023-02-19T01:34:36.464Z,95.30
2023-02-19T01:35:39.594Z,95.21
2023-02-19T01:37:14.853Z,95.16
2023-02-19T01:38:18.115Z,95.21
2023-02-19T01:39:21.479Z,95.14
2023-02-19T01:40:56.697Z,95.09
2023-02-19T01:42:00.152Z,95.06
2023-02-19T01:43:03.131Z,95.05
2023-02-19T01:44:38.233Z,94.95
2023-02-19T01:45:41.397Z,94.93
2023-02-19T01:46:44.801Z,94.96
2023-02-19T01:48:19.747Z,94.91
2023-02-19T01:49:22.757Z,94.89
2023-02-19T01:50:26.044Z,94.84
2023-02-19T01:52:01.745Z,94.77
2023-02-19T01:53:04.831Z,94.89
2023-02-19T01:54:07.935Z,94.88
2023-02-19T01:55:43.130Z,94.83
2023-02-19T01:56:46.150Z,94.90
2023-02-19T01:57:49.268Z,94.87
2023-02-19T01:59:24.157Z,94.89
2023-02-19T02:00:17.688Z,94.94
2023-02-19T02:01:21.343Z,94.98
2023-02-19T02:02:24.683Z,95.00
2023-02-19T02:03:59.484Z,95.02
2023-02-19T02:05:02.510Z,95.03
2023-02-19T02:06:05.453Z,95.16
2023-02-19T02:07:40.630Z,95.18
2023-02-19T02:08:43.562Z,95.14
2023-02-19T02:09:46.671Z,95.19
2023-02-19T02:11:21.812Z,95.25
2023-02-19T02:12:24.898Z,95.30
2023-02-19T02:13:27.926Z,95.33
2023-02-19T02:15:02.962Z,95.36
2023-02-19T02:16:05.915Z,95.36
2023-02-19T02:17:09.252Z,95.37
2023-02-19T02:18:44.216Z,95.43
2023-02-19T02:19:47.216Z,95.49
2023-02-19T02:20:50.206Z,95.54
2023-02-19T02:22:25.769Z,95.67
2023-02-19T02:23:29.257Z,95.64
2023-02-19T02:24:32.345Z,95.74
2023-02-19T02:26:07.647Z,95.82
2023-02-19T02:27:10.523Z,95.78
2023-02-19T02:28:13.772Z,95.93
2023-02-19T02:29:48.949Z,95.88
2023-02-19T02:30:52.341Z,95.97
2023-02-19T02:31:56.932Z,95.98
2023-02-19T02:33:32.627Z,95.96
2023-02-19T02:34:35.683Z,96.00
2023-02-19T02:35:38.963Z,96.07
2023-02-19T02:37:13.826Z,96.06
2023-02-19T02:38:16.821Z,96.06
2023-02-19T02:39:19.715Z,96.12
2023-02-19T02:40:54.698Z,96.13
2023-02-19T02:41:58.452Z,96.18
2023-02-19T02:43:01.408Z,96.16
2023-02-19T02:44:36.552Z,96.12
2023-02-19T02:45:40.111Z,96.08
2023-02-19T02:46:43.547Z,96.10
2023-02-19T02:48:18.449Z,96.06
2023-02-19T02:49:21.470Z,96.02
2023-02-19T02:50:24.490Z,96.02
2023-02-19T02:51:59.747Z,96.03
2023-02-19T02:53:02.894Z,96.03
2023-02-19T02:54:05.827Z,95.98
2023-02-19T02:55:43.263Z,95.85
2023-02-19T02:56:46.513Z,95.85
2023-02-19T02:57:49.902Z,95.92
2023-02-19T02:59:25.098Z,95.82
2023-02-19T03:00:17.433Z,95.90
2023-02-19T03:01:20.738Z,95.89
2023-02-19T03:02:24.060Z,95.91
2023-02-19T03:03:59.193Z,95.89
2023-02-19T03:05:02.168Z,95.86
2023-02-19T03:06:05.356Z,95.84
2023-02-19T03:07:40.127Z,95.85
2023-02-19T03:08:43.320Z,95.83
2023-02-19T03:09:48.201Z,95.84
2023-02-19T03:11:24.375Z,95.91
2023-02-19T03:12:27.243Z,95.96
2023-02-19T03:13:30.344Z,96.12
2023-02-19T03:15:05.427Z,96.11
2023-02-19T03:16:08.560Z,96.07
2023-02-19T03:17:11.816Z,96.11
2023-02-19T03:18:47.135Z,96.13
2023-02-19T03:19:50.320Z,96.12
2023-02-19T03:20:53.214Z,96.13
2023-02-19T03:22:28.720Z,96.14
2023-02-19T03:23:31.838Z,96.13
2023-02-19T03:24:35.132Z,96.16
2023-02-19T03:26:10.032Z,96.19
2023-02-19T03:27:13.026Z,96.11
2023-02-19T03:28:16.029Z,96.17
2023-02-19T03:29:50.867Z,96.16
2023-02-19T03:30:54.373Z,96.17
2023-02-19T03:31:58.921Z,96.17
2023-02-19T03:33:34.445Z,96.14
2023-02-19T03:34:37.825Z,96.13
2023-02-19T03:35:40.747Z,96.11
2023-02-19T03:37:15.879Z,96.22
2023-02-19T03:38:19.061Z,96.14
2023-02-19T03:39:22.146Z,96.12
2023-02-19T03:40:57.044Z,96.13
2023-02-19T03:42:00.348Z,96.09
2023-02-19T03:43:03.403Z,96.07
2023-02-19T03:44:38.239Z,96.07
2023-02-19T03:45:41.459Z,96.09
2023-02-19T03:46:44.838Z,96.09
2023-02-19T03:48:20.020Z,96.11
2023-02-19T03:49:23.063Z,96.10
2023-02-19T03:50:29.417Z,96.09
2023-02-19T03:52:04.689Z,96.04
2023-02-19T03:53:07.871Z,96.00
2023-02-19T03:54:10.975Z,95.93
2023-02-19T03:55:46.033Z,95.95
2023-02-19T03:56:49.029Z,95.88
2023-02-19T03:57:52.360Z,95.84
2023-02-19T03:59:27.205Z,95.84
2023-02-19T04:00:18.082Z,95.85
2023-02-19T04:01:21.302Z,95.82
2023-02-19T04:02:24.535Z,95.81
2023-02-19T04:03:59.742Z,95.81
2023-02-19T04:05:03.223Z,95.81
2023-02-19T04:06:06.319Z,95.80
2023-02-19T04:07:41.682Z,95.77
2023-02-19T04:08:44.665Z,95.80
2023-02-19T04:09:47.668Z,95.78
2023-02-19T04:11:22.870Z,95.80
2023-02-19T04:12:25.914Z,95.84
2023-02-19T04:13:28.926Z,95.84
2023-02-19T04:15:03.757Z,95.86
2023-02-19T04:16:06.808Z,95.83
2023-02-19T04:17:10.044Z,95.86
2023-02-19T04:18:45.025Z,95.95
2023-02-19T04:19:47.879Z,95.99
2023-02-19T04:20:51.042Z,96.06
2023-02-19T04:22:26.273Z,96.06
2023-02-19T04:23:29.267Z,96.19
2023-02-19T04:24:32.392Z,96.18
2023-02-19T04:26:07.474Z,96.23
2023-02-19T04:27:10.610Z,96.31
2023-02-19T04:28:13.783Z,96.41
2023-02-19T04:29:48.856Z,96.32
2023-02-19T04:30:52.391Z,96.45
2023-02-19T04:31:56.476Z,96.35
2023-02-19T04:33:31.511Z,96.44
2023-02-19T04:34:34.700Z,96.52
2023-02-19T04:35:40.390Z,96.50
2023-02-19T04:37:15.647Z,96.54
2023-02-19T04:38:18.982Z,96.55
2023-02-19T04:39:22.303Z,96.59
2023-02-19T04:40:57.388Z,96.54
2023-02-19T04:42:01.194Z,96.59
2023-02-19T04:43:04.092Z,96.57
2023-02-19T04:44:39.299Z,96.56
2023-02-19T04:45:42.390Z,96.56
2023-02-19T04:46:48.709Z,96.50
2023-02-19T04:48:23.675Z,96.49
2023-02-19T04:49:26.676Z,96.48
2023-02-19T04:50:29.712Z,96.57
2023-02-19T04:52:05.172Z,96.59
2023-02-19T04:53:08.376Z,96.56
2023-02-19T04:54:11.425Z,96.56
2023-02-19T04:55:46.391Z,96.56
2023-02-19T04:56:49.533Z,96.60
2023-02-19T04:57:52.731Z,96.61
2023-02-19T04:59:27.780Z,96.63
2023-02-19T05:00:17.898Z,96.63
2023-02-19T05:01:21.352Z,96.63
2023-02-19T05:02:24.752Z,96.66
2023-02-19T05:03:59.957Z,96.67
2023-02-19T05:05:47.990Z,96.72
2023-02-19T05:06:51.178Z,96.73
2023-02-19T05:07:54.389Z,96.73
2023-02-19T05:09:29.395Z,96.68
2023-02-19T05:10:32.527Z,96.69
2023-02-19T05:11:35.621Z,96.70
2023-02-19T05:13:10.695Z,96.67
2023-02-19T05:14:14.202Z,96.63
2023-02-19T05:15:17.138Z,96.63
2023-02-19T05:16:52.528Z,96.67
2023-02-19T05:17:55.596Z,96.67
2023-02-19T05:18:58.631Z,96.65
2023-02-19T05:20:33.764Z,96.71
2023-02-19T05:21:36.736Z,96.77
2023-02-19T05:22:39.778Z,96.69
2023-02-19T05:24:14.401Z,96.70
2023-02-19T05:25:17.770Z,96.68
2023-02-19T05:26:20.666Z,96.78
2023-02-19T05:27:58.063Z,96.76
2023-02-19T05:29:01.118Z,96.66
2023-02-19T05:30:03.995Z,96.72
2023-02-19T05:31:39.966Z,96.66
2023-02-19T05:32:43.662Z,96.65
2023-02-19T05:33:46.856Z,96.66
2023-02-19T05:35:22.050Z,96.66
2023-02-19T05:36:25.209Z,96.66
2023-02-19T05:37:28.120Z,96.61
2023-02-19T05:39:03.185Z,96.64
2023-02-19T05:40:06.427Z,96.64
2023-02-19T05:41:09.908Z,96.65
2023-02-19T05:42:45.148Z,96.62
2023-02-19T05:43:48.018Z,96.62
2023-02-19T05:44:51.132Z,96.65
2023-02-19T05:46:26.366Z,96.68
2023-02-19T05:47:29.618Z,96.70
2023-02-19T05:48:32.735Z,96.74
2023-02-19T05:50:07.491Z,96.73
2023-02-19T05:51:10.694Z,96.79
2023-02-19T05:52:13.910Z,96.77
2023-02-19T05:53:48.691Z,96.84
2023-02-19T05:54:51.992Z,96.83
2023-02-19T05:55:55.100Z,96.81
2023-02-19T05:57:30.029Z,96.81
2023-02-19T05:58:35.418Z,96.82
2023-02-19T05:59:38.428Z,96.81
2023-02-19T06:00:17.665Z,96.81
2023-02-19T06:01:20.753Z,96.78
2023-02-19T06:02:24.034Z,96.77
2023-02-19T06:04:02.808Z,96.83
2023-02-19T06:05:06.072Z,96.95
2023-02-19T06:06:09.069Z,97.01
2023-02-19T06:07:44.111Z,97.05
2023-02-19T06:08:47.307Z,97.03
2023-02-19T06:09:50.129Z,97.02
2023-02-19T06:11:24.934Z,97.00
2023-02-19T06:12:28.224Z,96.98
2023-02-19T06:13:31.187Z,96.92
2023-02-19T06:15:06.168Z,96.98
2023-02-19T06:16:09.189Z,97.02
2023-02-19T06:17:12.583Z,96.98
2023-02-19T06:18:47.426Z,96.98
2023-02-19T06:19:50.481Z,96.92
2023-02-19T06:20:53.448Z,96.89
2023-02-19T06:22:29.042Z,96.90
2023-02-19T06:23:32.081Z,96.90
2023-02-19T06:24:34.962Z,96.91
2023-02-19T06:26:10.029Z,96.96
2023-02-19T06:27:13.132Z,96.96
2023-02-19T06:28:16.154Z,96.92
2023-02-19T06:29:50.937Z,96.83
2023-02-19T06:30:56.871Z,96.88
2023-02-19T06:32:01.474Z,96.86
2023-02-19T06:33:37.382Z,96.87
2023-02-19T06:34:40.528Z,96.85
2023-02-19T06:35:43.687Z,96.86
2023-02-19T06:37:18.722Z,96.87
2023-02-19T06:38:21.919Z,96.93
2023-02-19T06:39:24.834Z,96.92
2023-02-19T06:40:59.754Z,96.92
2023-02-19T06:42:03.022Z,96.91
2023-02-19T06:43:06.035Z,96.87
2023-02-19T06:44:40.961Z,96.89
2023-02-19T06:45:43.934Z,96.83
2023-02-19T06:46:47.136Z,96.86
2023-02-19T06:48:22.472Z,96.85
2023-02-19T06:49:25.790Z,96.81
2023-02-19T06:50:28.872Z,96.86
2023-02-19T06:52:04.234Z,96.82
2023-02-19T06:53:07.108Z,96.77
2023-02-19T06:54:10.063Z,96.76
2023-02-19T06:55:45.466Z,96.83
2023-02-19T06:56:52.380Z,96.83
2023-02-19T06:57:55.351Z,96.73
2023-02-19T06:59:30.583Z,96.77
2023-02-19T07:00:18.197Z,96.75
2023-02-19T07:01:21.545Z,96.75
2023-02-19T07:02:24.470Z,96.66
2023-02-19T07:03:59.551Z,96.78
2023-02-19T07:05:02.917Z,96.80
2023-02-19T07:06:05.900Z,96.81
2023-02-19T07:07:41.102Z,96.76
2023-02-19T07:08:44.055Z,96.67
2023-02-19T07:09:47.009Z,96.66
2023-02-19T07:11:22.048Z,96.76
2023-02-19T07:12:25.099Z,96.79
2023-02-19T07:13:28.371Z,96.76
2023-02-19T07:15:03.146Z,96.83
2023-02-19T07:16:06.301Z,96.81
2023-02-19T07:17:09.749Z,96.85
2023-02-19T07:18:44.913Z,96.82
2023-02-19T07:19:48.053Z,96.81
2023-02-19T07:20:51.132Z,96.80
2023-02-19T07:22:26.638Z,96.74
2023-02-19T07:23:29.656Z,96.72
2023-02-19T07:24:32.475Z,96.73
2023-02-19T07:26:07.511Z,96.73
2023-02-19T07:27:10.551Z,96.73
2023-02-19T07:28:13.649Z,96.71
2023-02-19T07:29:48.660Z,96.70
2023-02-19T07:30:51.975Z,96.71
2023-02-19T07:31:56.402Z,96.73
2023-02-19T07:33:31.679Z,96.73
2023-02-19T07:34:34.812Z,96.81
2023-02-19T07:35:37.738Z,96.68
2023-02-19T07:37:12.762Z,96.79
2023-02-19T07:38:15.763Z,96.75
2023-02-19T07:39:19.070Z,96.75
2023-02-19T07:40:54.032Z,96.75
2023-02-19T07:41:57.381Z,96.69
2023-02-19T07:43:00.365Z,96.75
2023-02-19T07:44:35.173Z,96.80
2023-02-19T07:45:41.139Z,96.77
2023-02-19T07:46:44.331Z,96.77
2023-02-19T07:48:19.409Z,96.73
2023-02-19T07:49:22.778Z,96.73
2023-02-19T07:50:25.867Z,96.73
2023-02-19T07:52:01.490Z,96.75
2023-02-19T07:53:04.317Z,96.73
2023-02-19T07:54:07.371Z,96.68
2023-02-19T07:55:42.349Z,96.72
2023-02-19T07:56:45.500Z,96.69
2023-02-19T07:57:48.629Z,96.72
2023-02-19T07:59:24.318Z,96.65
2023-02-19T08:00:17.725Z,96.72
2023-02-19T08:01:21.295Z,96.73
2023-02-19T08:02:24.385Z,96.75
2023-02-19T08:03:59.434Z,96.76
2023-02-19T08:05:02.543Z,96.80
2023-02-19T08:06:06.083Z,96.71
2023-02-19T08:07:41.216Z,96.78
2023-02-19T08:08:44.057Z,96.83
2023-02-19T08:09:48.833Z,96.86
2023-02-19T08:11:23.885Z,96.77
2023-02-19T08:12:27.322Z,96.89
2023-02-19T08:13:30.583Z,96.89
2023-02-19T08:15:05.527Z,96.90
2023-02-19T08:16:36.839Z,96.94
2023-02-19T08:17:45.898Z,96.98
2023-02-19T08:19:20.850Z,96.92
2023-02-19T08:20:23.750Z,96.80
2023-02-19T08:21:26.888Z,96.70
2023-02-19T08:23:03.772Z,96.62
2023-02-19T08:24:06.958Z,96.56
2023-02-19T08:25:09.988Z,96.61
2023-02-19T08:26:45.199Z,96.56
2023-02-19T08:27:48.190Z,96.56
2023-02-19T08:28:51.126Z,96.54
2023-02-19T08:30:26.431Z,96.50
2023-02-19T08:31:30.755Z,96.51
2023-02-19T08:32:34.486Z,96.54
2023-02-19T08:34:09.570Z,96.56
2023-02-19T08:35:12.596Z,96.56
2023-02-19T08:36:15.656Z,96.66
2023-02-19T08:37:50.418Z,96.63
2023-02-19T08:38:53.495Z,96.61
2023-02-19T08:39:56.570Z,96.63
2023-02-19T08:41:31.723Z,96.49
2023-02-19T08:42:34.772Z,96.62
2023-02-19T08:43:37.657Z,96.63
2023-02-19T08:45:12.952Z,96.75
2023-02-19T08:46:16.228Z,96.73
2023-02-19T08:47:20.816Z,96.76
2023-02-19T08:48:55.844Z,96.74
2023-02-19T08:49:58.900Z,96.81
2023-02-19T08:51:01.961Z,96.80
2023-02-19T08:52:37.387Z,96.73
2023-02-19T08:53:40.444Z,96.68
2023-02-19T08:54:43.664Z,96.63
2023-02-19T08:56:19.854Z,96.55
2023-02-19T08:57:22.843Z,96.60
2023-02-19T08:58:26.052Z,96.53
2023-02-19T09:00:01.079Z,96.37
2023-02-19T09:00:17.822Z,96.37
2023-02-19T09:01:21.419Z,96.21
2023-02-19T09:02:25.361Z,96.39
2023-02-19T09:04:00.705Z,96.20
2023-02-19T09:05:03.817Z,96.29
2023-02-19T09:06:06.999Z,96.41
2023-02-19T09:07:42.234Z,96.39
2023-02-19T09:08:45.294Z,96.30
2023-02-19T09:09:48.463Z,96.32
2023-02-19T09:11:23.133Z,96.37
2023-02-19T09:12:29.072Z,96.31
2023-02-19T09:13:31.886Z,96.21
2023-02-19T09:15:06.889Z,96.16
2023-02-19T09:16:10.097Z,96.08
2023-02-19T09:17:13.135Z,96.07
2023-02-19T09:18:48.271Z,95.95
2023-02-19T09:19:51.235Z,95.92
2023-02-19T09:20:54.306Z,95.92
2023-02-19T09:22:29.797Z,95.75
2023-02-19T09:23:32.721Z,95.82
2023-02-19T09:24:35.747Z,95.79
2023-02-19T09:26:10.674Z,95.58
2023-02-19T09:27:13.921Z,95.46
2023-02-19T09:28:17.135Z,95.55
2023-02-19T09:29:52.057Z,95.50
2023-02-19T09:30:55.472Z,95.55
2023-02-19T09:31:59.775Z,95.55
2023-02-19T09:33:37.609Z,95.45
2023-02-19T09:34:40.711Z,95.57
2023-02-19T09:35:43.625Z,95.73
2023-02-19T09:37:18.546Z,95.68
2023-02-19T09:38:21.570Z,95.67
2023-02-19T09:39:24.832Z,95.47
2023-02-19T09:40:59.788Z,95.34
2023-02-19T09:42:03.547Z,95.21
2023-02-19T09:43:07.746Z,95.32
2023-02-19T09:44:42.792Z,94.91
2023-02-19T09:45:46.170Z,95.09
2023-02-19T09:46:49.178Z,95.11
2023-02-19T09:48:24.321Z,94.96
2023-02-19T09:49:27.259Z,94.97
2023-02-19T09:50:30.284Z,95.07
2023-02-19T09:52:05.182Z,95.19
2023-02-19T09:53:08.229Z,95.34
2023-02-19T09:54:11.094Z,95.40
2023-02-19T09:55:49.069Z,95.27
2023-02-19T09:56:52.144Z,95.35
2023-02-19T09:57:56.174Z,95.34
2023-02-19T09:59:30.973Z,95.45
2023-02-19T10:00:17.877Z,95.44
2023-02-19T10:01:20.795Z,95.44
2023-02-19T10:02:24.067Z,95.42
2023-02-19T10:03:58.763Z,95.20
2023-02-19T10:05:01.856Z,95.18
2023-02-19T10:06:05.253Z,95.23
2023-02-19T10:07:40.622Z,95.22
2023-02-19T10:08:43.744Z,95.15
2023-02-19T10:09:46.603Z,95.19
2023-02-19T10:11:21.556Z,95.19
2023-02-19T10:12:24.455Z,95.14
2023-02-19T10:13:27.599Z,95.08
2023-02-19T10:15:02.618Z,94.92
2023-02-19T10:16:05.758Z,94.91
2023-02-19T10:17:08.830Z,94.93
2023-02-19T10:18:43.935Z,94.80
2023-02-19T10:19:47.105Z,94.79
2023-02-19T10:20:50.146Z,94.87
2023-02-19T10:22:25.332Z,94.71
2023-02-19T10:23:28.523Z,94.56
2023-02-19T10:24:31.520Z,94.58
2023-02-19T10:26:07.880Z,94.76
2023-02-19T10:27:10.872Z,94.74
2023-02-19T10:28:13.636Z,94.67
2023-02-19T10:29:48.653Z,94.72
2023-02-19T10:30:51.943Z,94.80
2023-02-19T10:31:56.558Z,94.77
2023-02-19T10:33:31.635Z,94.50
2023-02-19T10:34:34.737Z,94.52
2023-02-19T10:35:37.753Z,94.57
2023-02-19T10:37:13.124Z,94.42
2023-02-19T10:38:16.179Z,94.45
2023-02-19T10:39:19.027Z,94.40
2023-02-19T10:40:54.343Z,94.49
2023-02-19T10:41:57.696Z,94.40
2023-02-19T10:43:00.717Z,94.47
2023-02-19T10:44:35.676Z,94.44
2023-02-19T10:45:38.561Z,94.41
2023-02-19T10:46:41.605Z,94.38
2023-02-19T10:48:16.727Z,94.42
2023-02-19T10:49:19.713Z,94.19
2023-02-19T10:50:22.626Z,94.24
2023-02-19T10:51:57.824Z,94.24
2023-02-19T10:53:00.989Z,94.23
2023-02-19T10:54:03.878Z,94.12
2023-02-19T10:55:38.983Z,93.86
2023-02-19T10:56:41.981Z,93.68
2023-02-19T10:57:45.173Z,93.75
2023-02-19T10:59:19.971Z,93.64
2023-02-19T11:00:17.779Z,93.54
2023-02-19T11:01:20.860Z,93.55
2023-02-19T11:02:24.181Z,93.37
2023-02-19T11:03:59.126Z,93.03
2023-02-19T11:05:02.369Z,93.24
2023-02-19T11:06:05.469Z,93.40
2023-02-19T11:07:40.650Z,93.30
2023-02-19T11:08:43.735Z,93.46
2023-02-19T11:09:46.796Z,93.55
2023-02-19T11:11:21.613Z,93.80
2023-02-19T11:12:25.062Z,93.89
2023-02-19T11:13:28.535Z,93.91
2023-02-19T11:15:03.453Z,93.98
2023-02-19T11:16:06.583Z,93.76
2023-02-19T11:17:10.082Z,93.84
2023-02-19T11:18:44.886Z,93.84
2023-02-19T11:19:49.067Z,93.86
2023-02-19T11:20:52.108Z,93.56
2023-02-19T11:22:27.803Z,93.77
2023-02-19T11:23:30.838Z,93.82
2023-02-19T11:24:33.955Z,93.81
2023-02-19T11:26:12.247Z,93.66
2023-02-19T11:27:15.252Z,93.80
2023-02-19T11:28:18.210Z,93.77
2023-02-19T11:29:53.187Z,93.64
2023-02-19T11:30:56.446Z,93.49
2023-02-19T11:32:00.707Z,93.31
2023-02-19T11:33:36.787Z,93.38
2023-02-19T11:34:39.632Z,93.44
2023-02-19T11:35:42.745Z,93.43
2023-02-19T11:37:20.643Z,93.47
2023-02-19T11:38:23.608Z,93.46
2023-02-19T11:39:26.627Z,93.59
2023-02-19T11:41:01.587Z,93.61
2023-02-19T11:42:04.920Z,93.58
2023-02-19T11:43:09.996Z,93.63
2023-02-19T11:44:45.069Z,92.99
2023-02-19T11:45:48.171Z,93.10
2023-02-19T11:46:51.379Z,93.00
2023-02-19T11:48:26.284Z,92.79
2023-02-19T11:49:29.409Z,92.59
2023-02-19T11:50:32.311Z,92.63
2023-02-19T11:52:07.237Z,92.69
2023-02-19T11:53:10.068Z,92.56
2023-02-19T11:54:13.289Z,92.60
2023-02-19T11:55:48.347Z,92.88
2023-02-19T11:56:51.254Z,92.91
2023-02-19T11:57:54.226Z,92.69
2023-02-19T11:59:29.231Z,92.69
2023-02-19T12:00:18.357Z,92.72
2023-02-19T12:01:21.351Z,92.72
2023-02-19T12:02:24.837Z,92.66
2023-02-19T12:03:59.914Z,92.71
2023-02-19T12:05:03.029Z,92.79
2023-02-19T12:06:06.520Z,92.88
2023-02-19T12:07:41.905Z,92.99
2023-02-19T12:08:44.920Z,92.98
2023-02-19T12:09:48.143Z,92.95
2023-02-19T12:11:22.961Z,92.79
2023-02-19T12:12:25.871Z,92.75
2023-02-19T12:13:29.670Z,92.61
2023-02-19T12:15:04.711Z,92.57
2023-02-19T12:16:08.024Z,92.63
2023-02-19T12:17:11.329Z,92.77
2023-02-19T12:18:46.119Z,92.81
2023-02-19T12:19:49.170Z,92.80
2023-02-19T12:20:52.734Z,92.81
2023-02-19T12:22:28.105Z,92.81
2023-02-19T12:23:31.194Z,92.74
2023-02-19T12:24:34.303Z,92.73
2023-02-19T12:26:09.452Z,92.85
2023-02-19T12:27:12.685Z,92.57
2023-02-19T12:28:15.736Z,92.53
2023-02-19T12:29:50.529Z,92.56
2023-02-19T12:30:53.852Z,92.72
2023-02-19T12:31:57.603Z,92.79
2023-02-19T12:33:33.058Z,92.63
2023-02-19T12:34:36.137Z,92.56
2023-02-19T12:35:39.326Z,92.39
2023-02-19T12:37:14.255Z,92.35
2023-02-19T12:38:17.589Z,92.03
2023-02-19T12:39:20.901Z,91.67
2023-02-19T12:40:55.624Z,91.97
2023-02-19T12:41:58.781Z,92.00
2023-02-19T12:43:02.249Z,92.04
2023-02-19T12:44:37.163Z,92.09
2023-02-19T12:45:40.281Z,91.97
2023-02-19T12:46:43.790Z,91.95
2023-02-19T12:48:18.849Z,91.96
2023-02-19T12:49:21.645Z,91.83
2023-02-19T12:50:27.562Z,91.19
2023-02-19T12:52:02.737Z,91.44
2023-02-19T12:53:05.857Z,91.14
2023-02-19T12:54:08.761Z,91.03
2023-02-19T12:55:46.689Z,90.92
2023-02-19T12:56:50.154Z,90.68
2023-02-19T12:57:53.460Z,90.58
2023-02-19T12:59:28.717Z,90.42
2023-02-19T13:00:17.773Z,90.54
2023-02-19T13:01:21.292Z,90.39
2023-02-19T13:02:24.949Z,89.29
2023-02-19T13:04:00.363Z,89.03
2023-02-19T13:05:03.099Z,89.22
2023-02-19T13:06:08.240Z,89.29
2023-02-19T13:07:44.911Z,89.09
2023-02-19T13:09:11.296Z,89.51
2023-02-19T13:10:14.352Z,89.82
2023-02-19T13:11:49.962Z,90.00
2023-02-19T13:12:52.875Z,90.02
2023-02-19T13:13:55.884Z,89.97
2023-02-19T13:15:31.069Z,89.90
2023-02-19T13:16:34.066Z,89.87
2023-02-19T13:17:37.495Z,89.92
2023-02-19T13:19:14.661Z,90.08
2023-02-19T13:20:17.628Z,89.78
2023-02-19T13:21:20.649Z,89.82
2023-02-19T13:22:58.678Z,88.91
2023-02-19T13:24:01.559Z,89.10
2023-02-19T13:25:04.627Z,89.54
2023-02-19T13:26:41.377Z,89.16
2023-02-19T13:28:50.497Z,87.99
2023-02-19T13:30:25.622Z,88.39
2023-02-19T13:31:29.665Z,88.46
2023-02-19T13:32:33.458Z,87.92
2023-02-19T13:34:08.269Z,87.38
2023-02-19T13:35:11.688Z,87.69
2023-02-19T13:36:14.693Z,87.93
2023-02-19T13:37:49.972Z,87.77
2023-02-19T13:38:52.832Z,87.64
2023-02-19T13:39:55.770Z,87.76
2023-02-19T13:41:30.805Z,87.88
2023-02-19T13:42:33.706Z,86.89
2023-02-19T13:43:36.963Z,87.26
2023-02-19T13:45:12.321Z,87.95
2023-02-19T13:46:15.347Z,88.20
2023-02-19T13:47:18.635Z,88.16
2023-02-19T13:48:53.449Z,88.11
2023-02-19T13:49:56.385Z,88.36
2023-02-19T13:51:00.278Z,88.36
2023-02-19T13:52:35.902Z,88.38
2023-02-19T13:53:38.726Z,88.05
2023-02-19T13:54:41.740Z,88.04
2023-02-19T13:56:16.823Z,87.24
2023-02-19T13:57:19.782Z,87.37
2023-02-19T13:58:22.841Z,87.38
2023-02-19T13:59:57.713Z,87.19
2023-02-19T14:00:17.464Z,87.19
2023-02-19T14:01:20.858Z,86.99
2023-02-19T14:02:23.984Z,86.33
2023-02-19T14:03:59.378Z,86.32
2023-02-19T14:05:02.554Z,86.09
2023-02-19T14:06:05.482Z,86.31
2023-02-19T14:07:41.338Z,86.11
2023-02-19T14:08:44.126Z,85.59
2023-02-19T14:09:47.108Z,85.75
2023-02-19T14:11:21.830Z,85.62
2023-02-19T14:12:24.762Z,85.55
2023-02-19T14:13:27.932Z,85.63
2023-02-19T14:15:03.042Z,85.85
2023-02-19T14:16:06.327Z,86.03
2023-02-19T14:17:09.426Z,86.14
2023-02-19T14:18:44.321Z,85.38
2023-02-19T14:19:47.402Z,85.52
2023-02-19T14:20:50.628Z,85.74
2023-02-19T14:22:25.809Z,86.10
2023-02-19T14:23:28.936Z,85.55
2023-02-19T14:24:33.049Z,85.93
2023-02-19T14:26:08.050Z,85.94
2023-02-19T14:27:11.173Z,85.98
2023-02-19T14:28:14.225Z,85.00
2023-02-19T14:29:49.256Z,84.84
2023-02-19T14:30:52.721Z,84.57
2023-02-19T14:31:58.956Z,84.90
2023-02-19T14:33:51.551Z,85.36
2023-02-19T14:34:54.703Z,85.46
2023-02-19T14:35:57.789Z,85.21
2023-02-19T14:37:32.941Z,85.46
2023-02-19T14:38:36.046Z,83.28
2023-02-19T14:39:39.251Z,82.70
2023-02-19T14:41:14.527Z,82.35
2023-02-19T14:42:17.553Z,82.51
2023-02-19T14:43:20.607Z,83.20
2023-02-19T14:44:55.375Z,83.40
2023-02-19T14:45:58.657Z,83.58
2023-02-19T14:47:01.738Z,83.77
2023-02-19T14:48:36.986Z,83.78
2023-02-19T14:49:40.018Z,84.01
2023-02-19T14:50:43.133Z,84.42
2023-02-19T14:52:18.222Z,84.46
2023-02-19T14:53:21.204Z,84.64
2023-02-19T14:54:24.569Z,84.53
2023-02-19T14:56:00.142Z,83.94
2023-02-19T14:57:02.958Z,83.64
2023-02-19T14:58:06.267Z,83.43
2023-02-19T14:59:41.356Z,83.96
2023-02-19T15:00:19.905Z,83.96
2023-02-19T15:01:22.878Z,84.02
2023-02-19T15:02:26.222Z,84.52
2023-02-19T15:04:01.241Z,84.51
2023-02-19T15:05:04.850Z,84.00
2023-02-19T15:06:08.030Z,84.54
2023-02-19T15:07:43.165Z,84.55
2023-02-19T15:08:46.314Z,84.44
2023-02-19T15:09:49.432Z,84.42
2023-02-19T15:11:28.174Z,83.51
2023-02-19T15:12:31.246Z,83.75
2023-02-19T15:13:34.286Z,83.94
2023-02-19T15:15:09.495Z,84.28
2023-02-19T15:16:12.629Z,84.32
2023-02-19T15:17:17.717Z,83.91
2023-02-19T15:18:52.670Z,84.16
2023-02-19T15:19:55.849Z,84.65
2023-02-19T15:20:59.066Z,84.68
2023-02-19T15:22:34.747Z,84.04
2023-02-19T15:23:37.762Z,84.35
2023-02-19T15:24:41.062Z,84.64
2023-02-19T15:26:18.114Z,84.82
2023-02-19T15:27:21.226Z,84.76
2023-02-19T15:28:24.471Z,84.87
2023-02-19T15:29:59.734Z,85.34
2023-02-19T15:31:02.928Z,85.32
2023-02-19T15:32:07.310Z,85.75
2023-02-19T15:33:42.939Z,85.90
2023-02-19T15:34:46.313Z,86.10
2023-02-19T15:35:49.480Z,86.10
2023-02-19T15:37:24.487Z,86.79
2023-02-19T15:38:27.362Z,86.92
2023-02-19T15:39:31.031Z,87.17
2023-02-19T15:41:05.957Z,86.98
2023-02-19T15:42:09.511Z,87.12
2023-02-19T15:43:12.670Z,87.24
2023-02-19T15:44:47.764Z,86.87
2023-02-19T15:45:50.690Z,86.62
2023-02-19T15:46:53.726Z,86.56